createdAt,value
2022-10-02T00:02:11.376Z,1010.02
2022-10-02T00:04:32.145Z,1009.96
2022-10-02T00:06:52.677Z,1010.07
2022-10-02T00:09:13.243Z,1009.98
2022-10-02T00:11:33.911Z,1010.12
2022-10-02T00:13:54.575Z,1010.09
2022-10-02T00:14:55.126Z,1010.11
2022-10-02T00:17:15.652Z,1010.10
2022-10-02T00:19:36.705Z,1010.13
2022-10-02T00:21:54.772Z,1010.09
2022-10-02T00:24:15.415Z,1010.16
2022-10-02T00:26:33.733Z,1010.16
2022-10-02T00:28:51.556Z,1010.12
2022-10-02T00:31:12.114Z,1010.11
2022-10-02T00:33:31.228Z,1010.19
2022-10-02T00:35:49.337Z,1010.22
2022-10-02T00:38:09.960Z,1010.24
2022-10-02T00:40:28.015Z,1010.24
2022-10-02T00:42:49.034Z,1010.26
2022-10-02T00:45:05.717Z,1010.23
2022-10-02T00:47:27.301Z,1010.25
2022-10-02T00:49:45.467Z,1010.26
2022-10-02T00:52:05.912Z,1010.27
2022-10-02T00:54:22.500Z,1010.28
2022-10-02T00:56:40.772Z,1010.29
2022-10-02T00:59:01.202Z,1010.33
2022-10-02T01:01:21.910Z,1010.35
2022-10-02T01:03:42.352Z,1010.36
2022-10-02T01:05:58.912Z,1010.32
2022-10-02T01:08:19.128Z,1010.34
2022-10-02T01:10:40.843Z,1010.38
2022-10-02T01:13:01.784Z,1010.44
2022-10-02T01:15:18.390Z,1010.41
2022-10-02T01:17:36.384Z,1010.48
2022-10-02T01:19:57.154Z,1010.55
2022-10-02T01:22:16.183Z,1010.59
2022-10-02T01:24:37.312Z,1010.58
2022-10-02T01:26:57.895Z,1010.59
2022-10-02T01:29:15.997Z,1010.65
2022-10-02T01:31:36.719Z,1010.67
2022-10-02T01:33:57.305Z,1010.67
2022-10-02T01:36:14.193Z,1010.72
2022-10-02T01:38:32.340Z,1010.73
2022-10-02T01:40:52.985Z,1010.72
2022-10-02T01:43:13.645Z,1010.68
2022-10-02T01:45:32.225Z,1010.63
2022-10-02T01:47:52.724Z,1010.63
2022-10-02T01:50:13.331Z,1010.62
2022-10-02T01:52:33.972Z,1010.69
2022-10-02T01:54:54.561Z,1010.75
2022-10-02T01:57:12.627Z,1010.73
2022-10-02T01:59:33.273Z,1010.76
2022-10-02T02:01:53.943Z,1010.77
2022-10-02T02:04:14.515Z,1010.81
2022-10-02T02:06:32.636Z,1010.83
2022-10-02T02:08:52.646Z,1010.89
2022-10-02T02:11:10.711Z,1010.91
2022-10-02T02:13:32.396Z,1010.94
2022-10-02T02:15:52.919Z,1010.91
2022-10-02T02:18:11.034Z,1010.87
2022-10-02T02:20:32.683Z,1010.94
2022-10-02T02:22:49.174Z,1011.00
2022-10-02T02:25:09.852Z,1010.95
2022-10-02T02:27:28.882Z,1010.92
2022-10-02T02:29:45.408Z,1010.89
2022-10-02T02:32:06.023Z,1010.92
2022-10-02T02:34:26.688Z,1010.91
2022-10-02T02:36:47.720Z,1010.91
2022-10-02T02:39:08.372Z,1010.91
2022-10-02T02:41:28.904Z,1010.89
2022-10-02T02:43:49.557Z,1010.90
2022-10-02T02:46:09.835Z,1010.91
2022-10-02T02:48:30.750Z,1010.96
2022-10-02T02:50:51.293Z,1010.98
2022-10-02T02:53:10.379Z,1011.04
2022-10-02T02:55:31.010Z,1011.00
2022-10-02T02:57:51.597Z,1011.01
2022-10-02T03:00:12.257Z,1011.12
2022-10-02T03:02:32.984Z,1011.16
2022-10-02T03:04:53.881Z,1011.11
2022-10-02T03:07:11.974Z,1011.14
2022-10-02T03:09:30.147Z,1011.12
2022-10-02T03:11:50.718Z,1011.20
2022-10-02T03:14:07.312Z,1011.23
2022-10-02T03:16:23.823Z,1011.20
2022-10-02T03:18:44.520Z,1011.25
2022-10-02T03:21:05.131Z,1011.20
2022-10-02T03:23:24.166Z,1011.22
2022-10-02T03:25:44.809Z,1011.17
2022-10-02T03:28:02.815Z,1011.21
2022-10-02T03:30:20.904Z,1011.19
2022-10-02T03:32:39.057Z,1011.16
2022-10-02T03:34:59.609Z,1011.14
2022-10-02T03:37:17.779Z,1011.20
2022-10-02T03:39:34.294Z,1011.18
2022-10-02T03:41:54.934Z,1011.13
2022-10-02T03:44:15.590Z,1011.19
2022-10-02T03:46:33.966Z,1011.16
2022-10-02T03:48:54.177Z,1011.20
2022-10-02T03:51:12.339Z,1011.13
2022-10-02T03:53:30.425Z,1011.15
2022-10-02T03:55:50.955Z,1011.15
2022-10-02T03:58:07.522Z,1011.16
2022-10-02T04:00:24.251Z,1011.16
2022-10-02T04:02:44.798Z,1011.21
2022-10-02T04:05:01.337Z,1011.24
2022-10-02T04:07:22.262Z,1011.22
2022-10-02T04:09:42.415Z,1011.23
2022-10-02T04:12:03.007Z,1011.31
2022-10-02T04:14:23.677Z,1011.28
2022-10-02T04:16:44.926Z,1011.36
2022-10-02T04:19:03.924Z,1011.32
2022-10-02T04:21:21.981Z,1011.31
2022-10-02T04:23:40.110Z,1011.32
2022-10-02T04:26:00.663Z,1011.31
2022-10-02T04:28:15.335Z,1011.36
2022-10-02T04:30:35.868Z,1011.32
2022-10-02T04:32:53.992Z,1011.36
2022-10-02T04:35:12.050Z,1011.37
2022-10-02T04:37:32.618Z,1011.36
2022-10-02T04:39:53.252Z,1011.40
2022-10-02T04:42:13.826Z,1011.44
2022-10-02T04:44:34.459Z,1011.43
2022-10-02T04:46:55.509Z,1011.38
2022-10-02T04:49:12.088Z,1011.37
2022-10-02T04:51:32.696Z,1011.34
2022-10-02T04:53:53.238Z,1011.36
2022-10-02T04:56:09.871Z,1011.36
2022-10-02T04:58:27.932Z,1011.41
2022-10-02T05:00:48.559Z,1011.44
2022-10-02T05:03:09.226Z,1011.49
2022-10-02T05:05:30.267Z,1011.53
2022-10-02T05:07:49.375Z,1011.60
2022-10-02T05:10:09.947Z,1011.57
2022-10-02T05:12:30.541Z,1011.61
2022-10-02T05:14:51.146Z,1011.59
2022-10-02T05:17:11.738Z,1011.58
2022-10-02T05:19:32.336Z,1011.64
2022-10-02T05:21:52.926Z,1011.68
2022-10-02T05:24:13.079Z,1011.66
2022-10-02T05:26:33.816Z,1011.66
2022-10-02T05:28:54.400Z,1011.66
2022-10-02T05:31:12.341Z,1011.66
2022-10-02T05:33:32.892Z,1011.67
2022-10-02T05:35:53.598Z,1011.64
2022-10-02T05:38:14.177Z,1011.66
2022-10-02T05:40:34.749Z,1011.73
2022-10-02T05:42:55.369Z,1011.85
2022-10-02T05:45:14.847Z,1011.83
2022-10-02T05:47:35.621Z,1011.83
2022-10-02T05:49:57.050Z,1011.82
2022-10-02T05:52:13.658Z,1011.78
2022-10-02T05:54:34.270Z,1011.75
2022-10-02T05:56:54.753Z,1011.78
2022-10-02T05:59:08.483Z,1011.73
2022-10-02T06:01:29.215Z,1011.76
2022-10-02T06:03:47.181Z,1011.72
2022-10-02T06:06:07.767Z,1011.71
2022-10-02T06:08:25.854Z,1011.79
2022-10-02T06:10:46.508Z,1011.86
2022-10-02T06:13:03.453Z,1011.82
2022-10-02T06:15:21.654Z,1011.84
2022-10-02T06:17:42.248Z,1011.80
2022-10-02T06:20:03.321Z,1011.88
2022-10-02T06:22:17.589Z,1011.87
2022-10-02T06:24:35.481Z,1011.92
2022-10-02T06:26:53.583Z,1011.90
2022-10-02T06:29:18.656Z,1011.91
2022-10-02T06:31:32.752Z,1011.97
2022-10-02T06:33:53.343Z,1011.98
2022-10-02T06:36:09.932Z,1011.98
2022-10-02T06:38:28.024Z,1012.04
2022-10-02T06:40:48.630Z,1012.05
2022-10-02T06:43:09.170Z,1012.04
2022-10-02T06:45:27.334Z,1011.99
2022-10-02T06:47:43.852Z,1011.99
2022-10-02T06:49:58.000Z,1011.96
2022-10-02T06:52:18.769Z,1011.94
2022-10-02T06:54:35.635Z,1011.87
2022-10-02T07:01:13.741Z,1011.94
2022-10-02T07:03:48.035Z,1011.96
2022-10-02T07:05:28.925Z,1011.99
2022-10-02T07:12:59.561Z,1011.94
2022-10-02T07:16:41.946Z,1011.97
2022-10-02T07:19:03.921Z,1011.91
2022-10-02T07:21:14.945Z,1011.95
2022-10-02T07:23:29.253Z,1011.98
2022-10-02T07:25:46.055Z,1012.11
2022-10-02T07:28:55.837Z,1012.04
2022-10-02T07:30:31.021Z,1012.05
2022-10-02T07:33:00.643Z,1012.10
2022-10-02T07:54:50.490Z,1012.23
2022-10-02T07:57:31.222Z,1012.16
2022-10-02T07:59:28.336Z,1012.17
2022-10-02T08:01:46.512Z,1012.12
2022-10-02T08:04:04.640Z,1012.10
2022-10-02T08:06:19.117Z,1012.07
2022-10-02T08:08:50.664Z,1012.04
2022-10-02T08:11:09.739Z,1012.03
2022-10-02T08:13:31.809Z,1012.00
2022-10-02T08:15:52.140Z,1012.05
2022-10-02T08:18:33.235Z,1012.06
2022-10-02T08:20:29.692Z,1011.99
2022-10-02T08:22:41.401Z,1012.03
2022-10-02T08:25:10.480Z,1012.01
2022-10-02T08:27:37.226Z,1012.05
2022-10-02T08:29:51.601Z,1012.03
2022-10-02T08:32:12.231Z,1011.94
2022-10-02T08:34:40.140Z,1011.94
2022-10-02T08:35:39.658Z,1011.96
2022-10-02T08:37:58.166Z,1011.94
2022-10-02T08:40:23.141Z,1011.94
2022-10-02T08:43:53.815Z,1011.87
2022-10-02T08:46:12.067Z,1011.86
2022-10-02T08:48:50.872Z,1011.83
2022-10-02T08:51:21.611Z,1011.87
2022-10-02T08:53:39.779Z,1011.94
2022-10-02T08:55:57.943Z,1011.99
2022-10-02T08:59:11.747Z,1012.01
2022-10-02T09:04:07.329Z,1012.04
2022-10-02T09:12:28.956Z,1011.97
2022-10-02T09:13:32.988Z,1012.01
2022-10-02T09:16:41.760Z,1011.93
2022-10-02T09:19:54.765Z,1011.92
2022-10-02T09:26:09.396Z,1011.87
2022-10-02T09:34:38.893Z,1011.68
2022-10-02T09:37:06.680Z,1011.63
2022-10-02T09:39:51.734Z,1011.62
2022-10-02T09:44:12.733Z,1011.66
2022-10-02T09:46:33.781Z,1011.66
2022-10-02T09:48:54.224Z,1011.75
2022-10-02T09:51:46.638Z,1011.76
2022-10-02T09:54:18.215Z,1011.87
2022-10-02T09:56:39.066Z,1012.05
2022-10-02T09:58:55.393Z,1012.03
2022-10-02T10:01:15.981Z,1012.01
2022-10-02T10:03:36.239Z,1011.97
2022-10-02T10:05:56.883Z,1011.96
2022-10-02T10:08:15.252Z,1011.93
2022-10-02T10:10:30.578Z,1012.02
2022-10-02T10:12:46.415Z,1011.98
2022-10-02T10:15:09.183Z,1011.92
2022-10-02T10:17:27.338Z,1011.91
2022-10-02T10:19:45.521Z,1012.00
2022-10-02T10:22:06.461Z,1012.02
2022-10-02T10:25:45.756Z,1012.07
2022-10-02T10:28:07.042Z,1012.13
2022-10-02T10:30:30.483Z,1012.13
2022-10-02T10:32:49.043Z,1012.08
2022-10-02T10:35:09.451Z,1012.07
2022-10-02T10:37:30.842Z,1012.08
2022-10-02T10:39:52.994Z,1012.08
2022-10-02T10:42:07.955Z,1012.08
2022-10-02T10:44:31.442Z,1012.05
2022-10-02T10:47:02.863Z,1012.02
2022-10-02T10:49:26.966Z,1012.00
2022-10-02T10:51:27.672Z,1012.00
2022-10-02T10:53:48.809Z,1011.96
2022-10-02T10:56:15.272Z,1011.94
2022-10-02T10:58:41.320Z,1011.98
2022-10-02T11:01:00.954Z,1011.98
2022-10-02T11:03:09.600Z,1012.01
2022-10-02T11:05:29.151Z,1012.02
2022-10-02T11:08:13.269Z,1012.15
2022-10-02T11:10:46.644Z,1012.04
2022-10-02T11:12:52.707Z,1012.03
2022-10-02T11:18:39.627Z,1012.04
2022-10-02T11:22:30.445Z,1011.94
2022-10-02T11:26:37.078Z,1011.83
2022-10-02T11:37:06.060Z,1011.94
2022-10-02T11:39:05.456Z,1011.92
2022-10-02T11:47:09.435Z,1011.79
2022-10-02T11:50:54.315Z,1011.85
2022-10-02T11:53:15.295Z,1011.79
2022-10-02T11:55:36.546Z,1011.78
2022-10-02T11:59:45.254Z,1011.87
2022-10-02T12:01:43.038Z,1011.81
2022-10-02T12:05:06.657Z,1011.88
2022-10-02T12:07:37.061Z,1011.90
2022-10-02T12:11:03.293Z,1011.92
2022-10-02T12:13:27.705Z,1012.03
2022-10-02T12:15:48.086Z,1011.82
2022-10-02T12:18:08.695Z,1011.94
2022-10-02T12:20:22.194Z,1011.89
2022-10-02T12:22:42.998Z,1011.89
2022-10-02T12:25:03.456Z,1011.88
2022-10-02T12:27:21.563Z,1011.82
2022-10-02T12:29:38.159Z,1011.85
2022-10-02T12:31:56.375Z,1011.92
2022-10-02T12:34:15.686Z,1011.95
2022-10-02T12:36:33.760Z,1012.05
2022-10-02T12:38:51.910Z,1012.05
2022-10-02T12:41:09.949Z,1012.04
2022-10-02T12:43:30.553Z,1011.98
2022-10-02T12:45:50.169Z,1011.86
2022-10-02T12:48:05.917Z,1011.88
2022-10-02T12:50:21.463Z,1011.80
2022-10-02T12:52:37.054Z,1011.83
2022-10-02T12:54:55.120Z,1011.79
2022-10-02T12:57:13.033Z,1011.85
2022-10-02T12:59:33.883Z,1011.83
2022-10-02T13:01:52.477Z,1011.84
2022-10-02T13:04:09.084Z,1011.87
2022-10-02T13:06:25.565Z,1011.87
2022-10-02T13:08:43.649Z,1011.80
2022-10-02T13:11:00.193Z,1011.87
2022-10-02T13:13:17.776Z,1011.81
2022-10-02T13:15:32.352Z,1011.81
2022-10-02T13:17:51.552Z,1011.90
2022-10-02T13:20:10.560Z,1011.84
2022-10-02T13:22:27.133Z,1011.84
2022-10-02T13:24:47.830Z,1011.88
2022-10-02T13:27:06.873Z,1011.82
2022-10-02T13:29:24.934Z,1011.83
2022-10-02T13:31:45.580Z,1011.83
2022-10-02T13:34:02.109Z,1011.80
2022-10-02T13:36:18.678Z,1011.85
2022-10-02T13:38:35.101Z,1011.81
2022-10-02T13:40:53.245Z,1011.90
2022-10-02T13:43:11.514Z,1011.90
2022-10-02T13:45:26.027Z,1011.88
2022-10-02T13:47:47.798Z,1011.90
2022-10-02T13:50:02.554Z,1011.91
2022-10-02T13:52:17.084Z,1011.88
2022-10-02T13:54:39.051Z,1011.89
2022-10-02T13:56:55.267Z,1011.90
2022-10-02T13:59:13.790Z,1011.97
2022-10-02T14:01:30.899Z,1011.96
2022-10-02T14:03:46.730Z,1011.96
2022-10-02T14:06:04.809Z,1012.01
2022-10-02T14:08:23.113Z,1012.07
2022-10-02T14:10:39.467Z,1012.04
2022-10-02T14:12:57.123Z,1012.10
2022-10-02T14:15:21.376Z,1012.18
2022-10-02T14:17:52.831Z,1012.21
2022-10-02T14:20:09.817Z,1012.24
2022-10-02T14:22:30.242Z,1012.21
2022-10-02T14:24:47.715Z,1012.16
2022-10-02T14:27:08.185Z,1012.17
2022-10-02T14:29:25.317Z,1012.22
2022-10-02T14:31:43.454Z,1012.15
2022-10-02T14:34:01.539Z,1012.12
2022-10-02T14:36:22.213Z,1012.18
2022-10-02T14:38:40.179Z,1012.21
2022-10-02T14:40:58.664Z,1012.22
2022-10-02T14:43:24.325Z,1012.30
2022-10-02T14:45:40.108Z,1012.22
2022-10-02T14:48:09.215Z,1012.28
2022-10-02T14:50:26.719Z,1012.27
2022-10-02T14:52:44.752Z,1012.31
2022-10-02T14:55:12.776Z,1012.27
2022-10-02T14:57:30.998Z,1012.24
2022-10-02T14:59:51.570Z,1012.27
2022-10-02T15:02:09.833Z,1012.26
2022-10-02T15:04:52.665Z,1012.28
2022-10-02T15:07:14.890Z,1012.36
2022-10-02T15:09:31.428Z,1012.38
2022-10-02T15:11:51.683Z,1012.38
2022-10-02T15:14:06.513Z,1012.41
2022-10-02T15:16:31.570Z,1012.47
2022-10-02T15:19:00.446Z,1012.53
2022-10-02T15:21:24.270Z,1012.49
2022-10-02T15:23:41.022Z,1012.49
2022-10-02T15:26:40.964Z,1012.55
2022-10-02T15:28:59.198Z,1012.47
2022-10-02T15:31:18.181Z,1012.52
2022-10-02T15:33:37.199Z,1012.52
2022-10-02T15:35:58.767Z,1012.52
2022-10-02T15:38:15.283Z,1012.50
2022-10-02T15:40:51.911Z,1012.56
2022-10-02T15:43:11.323Z,1012.63
2022-10-02T15:45:30.848Z,1012.66
2022-10-02T15:47:52.403Z,1012.68
2022-10-02T15:50:13.445Z,1012.65
2022-10-02T15:52:39.082Z,1012.72
2022-10-02T15:54:55.740Z,1012.68
2022-10-02T15:57:10.588Z,1012.68
2022-10-02T15:59:28.732Z,1012.67
2022-10-02T16:01:44.776Z,1012.69
2022-10-02T16:04:02.373Z,1012.76
2022-10-02T16:06:17.917Z,1012.78
2022-10-02T16:08:36.161Z,1012.82
2022-10-02T16:10:56.758Z,1012.87
2022-10-02T16:13:17.170Z,1012.91
2022-10-02T16:15:35.364Z,1012.98
2022-10-02T16:17:49.971Z,1012.94
2022-10-02T16:20:15.239Z,1012.95
2022-10-02T16:22:33.698Z,1012.95
2022-10-02T16:24:51.476Z,1012.94
2022-10-02T16:27:12.475Z,1013.02
2022-10-02T16:29:52.087Z,1013.08
2022-10-02T16:32:21.074Z,1013.12
2022-10-02T16:36:13.238Z,1013.17
2022-10-02T19:55:55.372Z,1015.64
2022-10-02T20:05:02.313Z,1015.75
2022-10-02T20:09:57.113Z,1015.78
2022-10-02T20:14:03.295Z,1015.74
2022-10-02T20:16:25.291Z,1015.74
2022-10-02T20:18:44.562Z,1015.78
2022-10-02T20:21:03.051Z,1015.81
2022-10-02T20:23:20.060Z,1015.86
2022-10-02T20:26:00.839Z,1015.86
2022-10-02T20:29:01.383Z,1015.84
2022-10-02T20:30:01.004Z,1015.92
2022-10-02T20:33:14.970Z,1015.94
2022-10-02T20:35:55.525Z,1015.94
2022-10-02T20:38:12.062Z,1015.98
2022-10-02T20:40:28.813Z,1015.97
2022-10-02T20:42:52.344Z,1016.04
2022-10-02T20:54:47.117Z,1016.12
2022-10-02T20:58:58.403Z,1016.18
2022-10-02T21:01:51.073Z,1016.18
2022-10-02T21:04:09.727Z,1016.19
2022-10-02T21:06:30.325Z,1016.25
2022-10-02T21:09:00.335Z,1016.29
2022-10-02T21:11:16.929Z,1016.27
2022-10-02T21:13:33.488Z,1016.27
2022-10-02T21:15:52.670Z,1016.25
2022-10-02T21:18:14.099Z,1016.26
2022-10-02T21:20:50.265Z,1016.27
2022-10-02T21:23:17.501Z,1016.29
2022-10-02T21:25:38.091Z,1016.31
2022-10-02T21:28:14.136Z,1016.34
2022-10-02T21:30:34.776Z,1016.33
2022-10-02T21:33:34.801Z,1016.33
2022-10-02T21:37:34.154Z,1016.43
2022-10-02T21:40:08.856Z,1016.42
2022-10-02T21:42:30.990Z,1016.48
2022-10-02T21:58:19.528Z,1016.55
2022-10-02T22:00:40.476Z,1016.60
2022-10-02T22:03:08.201Z,1016.58
2022-10-02T22:05:24.891Z,1016.64
2022-10-02T22:09:04.282Z,1016.61
2022-10-02T22:11:52.000Z,1016.64
2022-10-02T22:14:37.595Z,1016.61
2022-10-02T22:17:38.101Z,1016.61
2022-10-02T22:19:55.720Z,1016.59
2022-10-02T22:22:44.142Z,1016.67
2022-10-02T22:26:03.437Z,1016.64
2022-10-02T22:28:20.217Z,1016.67
2022-10-02T22:30:53.330Z,1016.73
2022-10-02T22:33:25.957Z,1016.76
2022-10-02T22:40:49.360Z,1016.75
2022-10-02T23:46:35.528Z,1017.30
2022-10-02T23:53:10.330Z,1017.38
2022-10-02T23:56:00.550Z,1017.39
2022-10-02T23:58:21.317Z,1017.41
